Time;durP1;ratioP1;P1;durP2;ratioP2;P2;SDS_P1;SDS_P2;PMS_P1;PMS_P2;Temp;Humidity;BMP_temperature;BMP_pressure;BME280_temperature;BME280_humidity;BME280_pressure;Samples;Min_cycle;Max_cycle;Signal;HPM_P1;HPM_P2
2022/09/27 00:00:20;;;;;;;12.70;6.60;;;;;;;17.70;58.94;99430.48;124800;1099;102216;-74
2022/09/27 00:03:12;;;;;;;15.73;7.10;;;;;;;17.69;59.00;99434.05;124835;1099;104163;-75
2022/09/27 00:05:43;;;;;;;14.83;6.47;;;;;;;17.69;58.92;99434.05;124774;1099;102913;-75
2022/09/27 00:08:14;;;;;;;13.63;6.47;;;;;;;17.67;59.02;99433.16;124774;1099;101876;-75
2022/09/27 00:10:45;;;;;;;13.93;6.87;;;;;;;17.66;59.28;99426.99;124814;1099;104254;-75
2022/09/27 00:13:17;;;;;;;13.90;6.50;;;;;;;17.65;59.35;99422.57;124797;1099;102248;-75
2022/09/27 00:15:55;;;;;;;14.00;7.00;;;;;;;17.64;59.67;99423.48;124810;1099;103302;-74
2022/09/27 00:18:26;;;;;;;13.93;8.10;;;;;;;17.64;59.81;99433.20;124850;1099;104229;-75
2022/09/27 00:21:04;;;;;;;15.97;6.53;;;;;;;17.60;59.71;99435.02;124842;1099;102856;-74
2022/09/27 00:23:35;;;;;;;14.70;7.30;;;;;;;17.57;60.27;99429.73;124830;1098;102178;-75
2022/09/27 00:26:08;;;;;;;15.33;7.67;;;;;;;17.55;60.43;99431.53;124846;1099;102922;-75
2022/09/27 00:28:39;;;;;;;13.87;7.87;;;;;;;17.51;60.71;99428.01;124821;1099;104249;-75
2022/09/27 00:31:29;;;;;;;13.97;7.67;;;;;;;17.49;60.88;99429.81;124835;1099;104309;-75
2022/09/27 00:34:02;;;;;;;14.37;8.60;;;;;;;17.48;60.64;99427.17;124865;1099;104175;-75
2022/09/27 00:36:35;;;;;;;13.70;7.87;;;;;;;17.46;60.96;99424.53;124809;1099;104813;-75
2022/09/27 00:39:06;;;;;;;16.73;8.70;;;;;;;17.44;61.49;99426.33;124864;1099;104207;-75
2022/09/27 00:41:37;;;;;;;15.70;8.43;;;;;;;17.43;61.10;99419.26;124882;1099;104159;-75
2022/09/27 00:44:39;;;;;;;13.60;8.17;;;;;;;17.41;61.95;99421.05;124737;1098;104233;-75
2022/09/27 00:47:14;;;;;;;15.73;8.20;;;;;;;17.38;61.94;99419.30;124851;1099;104173;-75
2022/09/27 00:49:49;;;;;;;15.40;8.20;;;;;;;17.36;61.88;99420.23;124858;1099;102782;-75
2022/09/27 00:52:24;;;;;;;14.93;8.57;;;;;;;17.31;62.50;99414.97;124794;1099;103308;-75
2022/09/27 00:55:00;;;;;;;17.37;8.73;;;;;;;17.28;62.80;99400.84;124798;1099;102788;-75
2022/09/27 00:57:32;;;;;;;13.50;8.30;;;;;;;17.21;62.25;99390.29;124778;1099;104306;-74
2022/09/27 01:00:09;;;;;;;15.77;9.10;;;;;;;17.21;62.51;99392.94;124843;1099;104236;-74
2022/09/27 01:02:44;;;;;;;15.63;9.10;;;;;;;17.16;62.76;99380.64;124805;1099;104763;-73
2022/09/27 01:05:19;;;;;;;18.00;9.73;;;;;;;17.12;62.90;99378.91;124769;1099;108162;-74
2022/09/27 01:07:50;;;;;;;16.73;9.67;;;;;;;17.07;63.56;99370.99;124820;1098;102797;-74
2022/09/27 01:10:24;;;;;;;15.63;8.70;;;;;;;16.98;63.76;99374.59;124827;1099;104166;-74
2022/09/27 01:13:04;;;;;;;16.83;9.67;;;;;;;16.91;63.86;99374.65;124897;1099;102809;-74
2022/09/27 01:15:47;;;;;;;18.90;9.93;;;;;;;16.88;64.16;99364.98;124774;1099;118971;-74
2022/09/27 01:18:30;;;;;;;17.87;9.77;;;;;;;16.86;63.97;99354.39;124809;1098;102191;-74
2022/09/27 01:21:20;;;;;;;18.15;10.32;;;;;;;16.85;64.04;99344.64;124875;1099;104217;-74
2022/09/27 01:24:13;;;;;;;17.80;10.50;;;;;;;16.81;64.13;99350.88;124846;1099;104184;-74
2022/09/27 01:27:10;;;;;;;21.87;10.70;;;;;;;16.78;64.79;99360.59;124487;1099;104381;-73
2022/09/27 01:29:50;;;;;;;20.30;11.17;;;;;;;16.75;64.77;99364.17;124534;1097;104281;-74
2022/09/27 01:32:31;;;;;;;19.10;10.13;;;;;;;16.75;64.79;99363.27;124857;1099;104366;-74
2022/09/27 01:35:07;;;;;;;18.87;10.30;;;;;;;16.71;65.12;99357.12;124789;1099;104229;-74
2022/09/27 01:37:45;;;;;;;18.60;10.43;;;;;;;16.68;65.69;99350.06;124836;1099;104345;-74
2022/09/27 01:40:23;;;;;;;19.27;11.27;;;;;;;16.69;65.56;99345.67;124811;1099;104345;-74
2022/09/27 01:43:30;;;;;;;21.63;11.57;;;;;;;16.71;65.39;99359.77;124365;1102;102982;-74
2022/09/27 01:46:06;;;;;;;18.50;10.80;;;;;;;16.71;65.68;99362.42;124850;1099;104248;-74
2022/09/27 01:48:58;;;;;;;17.53;10.27;;;;;;;16.69;65.74;99354.48;124796;1099;104321;-75
2022/09/27 01:51:36;;;;;;;17.60;10.45;;;;;;;16.67;66.42;99353.63;124851;1099;104163;-74
2022/09/27 01:54:12;;;;;;;19.57;11.23;;;;;;;16.64;66.05;99344.80;124802;1099;104149;-74
2022/09/27 01:57:01;;;;;;;;;;;;;;;16.61;66.46;99335.13;124760;1099;117910;-74
2022/09/27 01:59:38;;;;;;;;;;;;;;;16.61;66.34;99329.84;124815;1099;104084;-74
2022/09/27 02:02:39;;;;;;;20.63;10.87;;;;;;;16.59;66.05;99320.14;124682;1099;104217;-74
2022/09/27 02:05:38;;;;;;;19.67;11.07;;;;;;;16.57;66.93;99322.80;124671;1099;104804;-74
2022/09/27 02:08:44;;;;;;;17.73;11.17;;;;;;;16.57;66.82;99306.91;124745;1099;104160;-74
2022/09/27 02:11:27;;;;;;;19.53;11.83;;;;;;;16.59;66.86;99315.70;124762;1099;104319;-74
2022/09/27 02:14:11;;;;;;;18.53;11.47;;;;;;;16.60;67.54;99304.23;124809;1099;104099;-74
2022/09/27 02:16:50;;;;;;;18.57;11.33;;;;;;;16.62;67.78;99305.09;124877;1099;104303;-74
2022/09/27 02:19:37;;;;;;;18.57;10.80;;;;;;;16.63;67.02;99309.50;124830;1099;104241;-74
2022/09/27 02:22:17;;;;;;;19.13;10.50;;;;;;;16.65;67.54;99320.09;124866;1098;104210;-74
2022/09/27 02:24:55;;;;;;;19.23;11.30;;;;;;;16.65;67.93;99322.73;124830;1099;103003;-73
2022/09/27 02:27:33;;;;;;;18.50;11.23;;;;;;;16.68;67.68;99341.25;124780;1099;107002;-74
2022/09/27 02:30:16;;;;;;;18.30;11.40;;;;;;;16.67;67.81;99343.03;124794;1099;104051;-74
2022/09/27 02:32:49;;;;;;;18.30;10.47;;;;;;;16.66;68.08;99332.45;124788;1099;104253;-74
2022/09/27 02:35:24;;;;;;;18.50;10.57;;;;;;;16.66;68.06;99340.39;124804;1099;104313;-74
2022/09/27 02:37:57;;;;;;;17.60;10.20;;;;;;;16.60;68.20;99336.02;124795;1099;119012;-74
2022/09/27 02:40:33;;;;;;;20.23;11.07;;;;;;;16.59;68.57;99336.89;124752;1099;104291;-74
2022/09/27 02:43:06;;;;;;;18.73;10.87;;;;;;;16.57;69.00;99328.09;124846;1098;104268;-74
2022/09/27 02:45:52;;;;;;;18.35;11.38;;;;;;;16.59;69.28;99331.59;124857;1098;104197;-73
2022/09/27 02:48:35;;;;;;;18.13;11.67;;;;;;;16.61;69.06;99329.84;124880;1099;104297;-74
2022/09/27 02:51:22;;;;;;;22.73;12.20;;;;;;;16.60;69.70;99328.06;124781;1099;104632;-74
2022/09/27 02:54:10;;;;;;;18.33;11.43;;;;;;;16.53;69.36;99327.24;124837;1099;102954;-74
2022/09/27 02:57:34;;;;;;;19.80;11.93;;;;;;;16.47;69.30;99329.03;124819;1099;102389;-75
2022/09/27 03:00:38;;;;;;;18.27;11.70;;;;;;;16.46;69.76;99306.98;124830;1099;104313;-74
2022/09/27 03:03:38;;;;;;;22.20;12.27;;;;;;;16.43;69.42;99299.06;124620;1099;102502;-75
2022/09/27 03:06:15;;;;;;;17.60;11.43;;;;;;;16.40;70.12;99303.52;124790;1099;104184;-74
2022/09/27 03:08:49;;;;;;;19.20;11.90;;;;;;;16.34;70.60;99294.70;124814;1099;107798;-74
2022/09/27 03:11:20;;;;;;;19.70;13.13;;;;;;;16.29;70.31;99300.94;124801;1099;104163;-74
2022/09/27 03:13:52;;;;;;;20.37;12.90;;;;;;;16.24;70.58;99300.09;124854;1099;104226;-75
2022/09/27 03:16:23;;;;;;;22.23;14.83;;;;;;;16.22;70.51;99284.23;124840;1099;102242;-74
2022/09/27 03:19:16;;;;;;;21.42;14.58;;;;;;;16.22;70.99;99256.86;124821;1099;118595;-74
2022/09/27 03:22:13;;;;;;;22.27;14.97;;;;;;;16.21;70.62;99242.77;124911;1098;104425;-74
2022/09/27 03:24:45;;;;;;;24.07;15.73;;;;;;;16.22;71.29;99240.98;124878;1098;102327;-74
2022/09/27 03:27:17;;;;;;;23.27;15.37;;;;;;;16.22;71.76;99236.59;124871;1099;104224;-74
2022/09/27 03:29:50;;;;;;;23.90;14.70;;;;;;;16.22;71.36;99227.75;124893;1099;102756;-74
2022/09/27 03:32:21;;;;;;;23.10;15.10;;;;;;;16.21;71.84;99218.95;124817;1098;104261;-74
2022/09/27 03:35:29;;;;;;;24.10;15.33;;;;;;;16.14;71.69;99226.06;124835;1099;102021;-74
2022/09/27 03:38:00;;;;;;;22.85;15.63;;;;;;;16.14;71.65;99241.03;124759;1099;102813;-74
2022/09/27 03:40:32;;;;;;;24.60;16.30;;;;;;;16.15;71.68;99222.50;124847;1099;104188;-74
2022/09/27 03:43:03;;;;;;;25.65;16.70;;;;;;;16.18;72.57;99216.32;124767;1099;102458;-74
2022/09/27 03:45:35;;;;;;;23.63;15.43;;;;;;;16.21;72.38;99215.43;124875;1099;104249;-74
2022/09/27 03:48:09;;;;;;;23.03;16.07;;;;;;;16.23;72.13;99225.09;124785;1099;104150;-74
2022/09/27 03:50:41;;;;;;;22.93;16.63;;;;;;;16.26;72.73;99238.30;124610;1099;104163;-74
2022/09/27 03:53:12;;;;;;;22.77;16.27;;;;;;;16.28;72.44;99233.00;124678;1099;104079;-74
2022/09/27 03:55:45;;;;;;;24.57;16.33;;;;;;;16.31;72.69;99225.03;124945;1099;104262;-74
2022/09/27 03:58:16;;;;;;;24.63;16.17;;;;;;;16.28;73.17;99228.60;124837;1099;104631;-74
2022/09/27 04:00:48;;;;;;;24.10;16.83;;;;;;;16.28;72.49;99233.00;124841;1098;104287;-73
2022/09/27 04:03:19;;;;;;;24.67;15.07;;;;;;;16.23;72.62;99226.88;124917;1099;102173;-74
2022/09/27 04:06:12;;;;;;;23.80;16.67;;;;;;;16.22;73.43;99225.11;124893;1099;102815;-74
2022/09/27 04:08:47;;;;;;;28.00;16.80;;;;;;;16.22;73.28;99219.81;124786;1099;102226;-74
2022/09/27 04:11:18;;;;;;;23.67;16.53;;;;;;;16.20;73.48;99214.53;124639;1099;102969;-74
2022/09/27 04:13:50;;;;;;;23.50;17.47;;;;;;;16.24;72.99;99215.41;124757;1099;104183;-75
2022/09/27 04:16:22;;;;;;;23.47;16.00;;;;;;;16.25;73.42;99214.49;125027;1099;104321;-74
2022/09/27 04:19:16;;;;;;;24.50;16.67;;;;;;;16.25;73.19;99215.39;125023;1099;104232;-75
2022/09/27 04:22:07;;;;;;;23.40;16.70;;;;;;;16.27;74.09;99212.73;124918;1099;104239;-74
2022/09/27 04:24:38;;;;;;;24.17;16.93;;;;;;;16.29;73.76;99216.23;124920;1099;104229;-73
2022/09/27 04:27:25;;;;;;;25.40;16.80;;;;;;;16.31;73.63;99206.50;124696;1098;104057;-74
2022/09/27 04:29:57;;;;;;;26.73;19.70;;;;;;;16.34;74.15;99195.89;124896;1099;104931;-75
2022/09/27 04:32:46;;;;;;;23.53;17.27;;;;;;;16.34;74.25;99209.13;124945;1099;104265;-75
2022/09/27 04:38:25;;;;;;;24.17;17.20;;;;;;;16.32;73.95;99200.33;124989;1099;104172;-74
2022/09/27 04:41:00;;;;;;;25.83;17.37;;;;;;;16.30;74.51;99197.70;124769;1099;108143;-74
2022/09/27 04:43:32;;;;;;;24.77;17.73;;;;;;;16.27;74.15;99181.84;125032;1099;104224;-74
2022/09/27 04:46:03;;;;;;;25.37;17.27;;;;;;;16.24;74.81;99173.92;124899;1099;104285;-74
2022/09/27 04:48:34;;;;;;;28.70;18.60;;;;;;;16.25;75.21;99173.05;125010;1099;102167;-74
2022/09/27 04:51:07;;;;;;;25.50;19.03;;;;;;;16.26;74.42;99168.63;124927;1099;104150;-75
2022/09/27 04:53:39;;;;;;;28.80;18.27;;;;;;;16.24;75.05;99176.57;124857;1098;104275;-74
2022/09/27 04:56:11;;;;;;;26.83;18.93;;;;;;;16.24;74.60;99176.57;124961;1098;104207;-73
2022/09/27 04:58:43;;;;;;;25.73;18.03;;;;;;;16.27;75.34;99175.68;124996;1099;104294;-74
2022/09/27 05:01:14;;;;;;;30.07;19.00;;;;;;;16.28;74.87;99177.41;124762;1099;104344;-73
2022/09/27 05:04:15;;;;;;;27.80;17.60;;;;;;;16.28;75.65;99172.13;124204;1102;104561;-73
2022/09/27 05:06:48;;;;;;;25.23;17.25;;;;;;;16.29;74.86;99169.46;124660;1099;104073;-74
2022/09/27 05:09:22;;;;;;;24.43;17.73;;;;;;;16.34;75.05;99169.42;124645;1099;102848;-75
2022/09/27 05:11:56;;;;;;;26.33;17.53;;;;;;;16.39;75.14;99164.09;124758;1099;104730;-74
2022/09/27 05:14:27;;;;;;;29.37;18.33;;;;;;;16.41;75.31;99171.13;124724;1099;101815;-74
2022/09/27 05:17:19;;;;;;;25.87;18.03;;;;;;;16.45;75.93;99182.56;124730;1098;104182;-73
2022/09/27 05:19:54;;;;;;;;;;;;;;;16.43;75.15;99177.28;124755;1099;104223;-73
2022/09/27 05:22:37;;;;;;;24.73;16.93;;;;;;;16.42;75.65;99185.23;124651;1099;102778;-74
2022/09/27 05:25:11;;;;;;;27.37;17.97;;;;;;;16.45;75.85;99186.08;124748;1099;102829;-74
2022/09/27 05:27:44;;;;;;;24.20;16.90;;;;;;;16.50;75.89;99184.28;124693;1099;102203;-74
2022/09/27 05:30:15;;;;;;;26.93;17.13;;;;;;;16.54;76.48;99185.13;124649;1099;102880;-73
2022/09/27 05:32:53;;;;;;;23.20;17.70;;;;;;;16.60;75.80;99176.25;124688;1099;102008;-74
2022/09/27 05:35:34;;;;;;;25.37;17.57;;;;;;;16.63;76.00;99173.58;124660;1099;104172;-74
2022/09/27 05:38:06;;;;;;;24.87;16.93;;;;;;;16.67;76.08;99183.22;124280;1099;104159;-74
2022/09/27 05:40:43;;;;;;;25.33;18.47;;;;;;;16.71;76.63;99182.31;124675;1099;104220;-74
2022/09/27 05:43:17;;;;;;;25.43;18.40;;;;;;;16.79;76.25;99184.88;124744;1099;104182;-75
2022/09/27 05:45:51;;;;;;;29.10;17.57;;;;;;;16.84;76.31;99191.00;124684;1099;104278;-74
2022/09/27 05:48:27;;;;;;;27.30;18.50;;;;;;;16.87;76.76;99183.92;124724;1099;104232;-75
2022/09/27 05:51:05;;;;;;;25.53;18.93;;;;;;;16.93;76.88;99182.12;124714;1099;102601;-75
2022/09/27 05:53:38;;;;;;;25.00;18.60;;;;;;;16.99;77.25;99177.62;124748;1099;104404;-74
2022/09/27 05:56:11;;;;;;;25.87;18.33;;;;;;;17.05;76.77;99176.67;124767;1099;102107;-75
2022/09/27 05:59:15;;;;;;;26.30;18.53;;;;;;;17.11;77.04;99187.20;124491;1099;102830;-75
2022/09/27 06:02:19;;;;;;;25.70;17.90;;;;;;;17.18;77.02;99182.70;124298;1102;103222;-75
2022/09/27 06:05:10;;;;;;;25.20;18.43;;;;;;;17.20;77.33;99183.55;124738;1099;104217;-74
2022/09/27 06:08:06;;;;;;;24.27;18.02;;;;;;;17.19;76.79;99192.42;124798;1099;104268;-75
2022/09/27 06:11:04;;;;;;;23.77;17.87;;;;;;;17.20;77.38;99192.40;124760;1099;104371;-75
2022/09/27 06:13:38;;;;;;;30.50;19.57;;;;;;;17.23;77.14;99195.02;124766;1099;104859;-76
2022/09/27 06:16:17;;;;;;;26.17;18.03;;;;;;;17.24;77.24;99194.09;125834;1098;104156;-75
2022/09/27 06:19:07;;;;;;;25.13;17.73;;;;;;;17.30;77.19;99189.63;124795;1099;104188;-75
2022/09/27 06:21:42;;;;;;;24.30;17.00;;;;;;;17.38;77.44;99190.41;124788;1099;102345;-76
2022/09/27 06:24:15;;;;;;;23.85;16.37;;;;;;;17.40;76.82;99191.25;125622;1098;104325;-76
2022/09/27 06:26:50;;;;;;;24.13;17.97;;;;;;;17.49;77.25;99192.92;124720;1099;104194;-76
2022/09/27 06:29:42;;;;;;;23.10;16.27;;;;;;;17.55;77.32;99199.01;124717;1099;104208;-76
2022/09/27 06:32:26;;;;;;;21.47;15.77;;;;;;;17.64;77.46;99207.73;124742;1099;102188;-76
2022/09/27 06:35:19;;;;;;;23.30;15.80;;;;;;;17.63;77.21;99203.34;124752;1099;104156;-77
2022/09/27 06:37:51;;;;;;;27.33;16.23;;;;;;;17.64;77.11;99210.38;124787;1099;104306;-78
2022/09/27 06:40:29;;;;;;;24.02;15.48;;;;;;;17.71;77.14;99202.31;124714;1099;104185;-77
2022/09/27 06:43:22;;;;;;;24.27;15.33;;;;;;;17.77;77.45;99206.67;124493;1099;104484;-76
2022/09/27 06:46:08;;;;;;;22.30;15.25;;;;;;;17.77;77.40;99204.02;124759;1099;104265;-76
2022/09/27 06:49:04;;;;;;;;;;;;;;;17.70;77.20;99203.23;124897;1099;104281;-77
2022/09/27 06:51:39;;;;;;;22.50;15.33;;;;;;;17.70;77.31;99197.03;124823;1099;104253;-78
2022/09/27 06:54:13;;;;;;;24.13;15.70;;;;;;;17.69;77.44;99195.30;124822;1099;104080;-77
2022/09/27 06:56:50;;;;;;;24.67;15.37;;;;;;;17.69;77.55;99200.61;124785;1099;104220;-77
2022/09/27 07:02:38;;;;;;;22.60;14.60;;;;;;;17.73;77.21;99194.34;124938;1099;104229;-77
2022/09/27 07:05:20;;;;;;;21.00;14.17;;;;;;;17.75;77.43;99190.77;124329;1102;104262;-77
2022/09/27 07:08:07;;;;;;;22.47;14.50;;;;;;;17.76;77.69;99183.68;124831;1099;104236;-77
2022/09/27 07:10:41;;;;;;;24.00;13.83;;;;;;;17.79;77.43;99178.33;124821;1099;102768;-77
2022/09/27 07:16:05;;;;;;;23.20;14.07;;;;;;;17.90;77.49;99180.86;124830;1099;102858;-77
2022/09/27 07:18:39;;;;;;;22.90;15.10;;;;;;;17.94;77.63;99172.83;124342;1099;104278;-76
2022/09/27 07:21:34;;;;;;;25.17;15.43;;;;;;;18.03;77.75;99176.23;125025;1099;104241;-78
2022/09/27 07:24:13;;;;;;;26.80;15.00;;;;;;;18.07;77.53;99165.54;124850;1098;104297;-78
2022/09/27 07:26:50;;;;;;;22.13;14.80;;;;;;;18.09;77.58;99171.72;125622;1099;104339;-78
2022/09/27 07:29:29;;;;;;;21.83;14.80;;;;;;;18.11;77.64;99171.70;125598;1099;104245;-78
2022/09/27 07:32:07;;;;;;;20.40;14.63;;;;;;;18.10;77.56;99183.20;124779;1099;104181;-78
2022/09/27 07:34:39;;;;;;;20.92;14.70;;;;;;;18.05;77.63;99183.28;125040;1099;104245;-78
2022/09/27 07:37:12;;;;;;;;;;;;;;;18.05;77.36;99188.59;124726;1099;102239;-80
2022/09/27 07:39:49;;;;;;;23.40;14.83;;;;;;;18.08;77.63;99185.87;125545;1098;102307;-79
2022/09/27 07:42:28;;;;;;;23.83;15.72;;;;;;;18.10;77.82;99189.38;124905;1099;102290;-80
2022/09/27 07:45:03;;;;;;;22.40;15.57;;;;;;;18.15;77.86;99194.61;125576;1099;104272;-79
2022/09/27 07:48:07;;;;;;;20.97;14.60;;;;;;;18.18;78.23;99194.56;125509;1099;104159;-79
2022/09/27 07:51:19;;;;;;;24.80;15.13;;;;;;;18.24;78.08;99199.78;125046;1102;104143;-78
2022/09/27 07:54:02;;;;;;;23.23;15.30;;;;;;;18.30;77.90;99194.37;124835;1102;104166;-80
2022/09/27 07:56:57;;;;;;;22.77;15.20;;;;;;;18.37;77.60;99189.85;125299;1099;104194;-79
2022/09/27 07:59:33;;;;;;;23.93;14.83;;;;;;;18.44;78.02;99194.13;125100;1102;103682;-79
2022/09/27 08:02:08;;;;;;;26.03;14.87;;;;;;;18.49;78.13;99184.30;124466;1102;102278;-80
2022/09/27 08:04:45;;;;;;;24.33;15.03;;;;;;;18.50;77.74;99185.20;124453;1099;104220;-77
2022/09/27 08:07:22;;;;;;;24.07;15.57;;;;;;;18.57;78.21;99178.85;125602;1099;104182;-76
2022/09/27 08:09:58;;;;;;;21.63;14.90;;;;;;;18.70;78.41;99179.53;124758;1099;102180;-77
2022/09/27 08:12:33;;;;;;;23.83;14.70;;;;;;;18.79;77.71;99160.75;125031;1099;104322;-77
2022/09/27 08:15:06;;;;;;;23.37;15.50;;;;;;;18.83;77.68;99161.56;125526;1099;104147;-77
2022/09/27 08:17:37;;;;;;;22.47;14.70;;;;;;;18.88;78.04;99159.71;124830;1098;104264;-77
2022/09/27 08:20:14;;;;;;;23.87;15.07;;;;;;;18.90;78.03;99147.29;125801;1099;102478;-77
2022/09/27 08:23:15;;;;;;;22.57;13.97;;;;;;;18.98;78.12;99149.77;124664;1099;102185;-77
2022/09/27 08:25:53;;;;;;;20.95;14.10;;;;;;;19.04;77.75;99149.64;124774;1099;104185;-76
2022/09/27 08:28:32;;;;;;;19.73;13.48;;;;;;;19.09;78.03;99157.52;124770;1099;104185;-76
2022/09/27 08:31:22;;;;;;;20.50;14.17;;;;;;;19.12;77.74;99150.38;124725;1099;102714;-76
2022/09/27 08:33:55;;;;;;;27.70;14.47;;;;;;;19.19;78.04;99146.66;125736;1098;104261;-77
2022/09/27 08:36:29;;;;;;;23.73;15.33;;;;;;;19.32;78.21;99143.75;124712;1099;103571;-77
2022/09/27 08:39:03;;;;;;;20.83;13.67;;;;;;;19.38;77.43;99139.19;125577;1099;104316;-77
2022/09/27 08:41:51;;;;;;;22.00;14.05;;;;;;;19.44;78.00;99139.95;124734;1099;104079;-77
2022/09/27 08:44:34;;;;;;;26.50;14.27;;;;;;;19.51;77.15;99136.23;124696;1099;104211;-77
2022/09/27 08:47:15;;;;;;;25.13;14.90;;;;;;;19.64;77.21;99139.51;124687;1099;112075;-76
2022/09/27 08:49:52;;;;;;;22.17;14.17;;;;;;;19.73;77.31;99139.30;124735;1099;104602;-75
2022/09/27 08:52:27;;;;;;;24.97;13.67;;;;;;;19.80;76.98;99143.58;124765;1099;104150;-75
2022/09/27 08:55:03;;;;;;;21.47;13.17;;;;;;;19.82;77.78;99138.22;124853;1099;102816;-77
2022/09/27 08:57:36;;;;;;;23.07;14.30;;;;;;;19.82;77.19;99138.22;124775;1098;104296;-77
2022/09/27 09:00:17;;;;;;;21.17;13.33;;;;;;;19.81;77.20;99125.84;124919;1099;104236;-77
2022/09/27 09:02:52;;;;;;;22.17;13.67;;;;;;;19.80;76.78;99118.76;124682;1099;104214;-77
2022/09/27 09:05:30;;;;;;;19.60;11.97;;;;;;;19.81;77.33;99121.38;125023;1099;104205;-77
2022/09/27 09:08:21;;;;;;;21.80;12.77;;;;;;;19.75;76.85;99127.69;125625;1099;104348;-77
2022/09/27 09:14:08;;;;;;;22.90;12.30;;;;;;;19.76;76.06;99123.26;124763;1099;104297;-76
2022/09/27 09:16:54;;;;;;;21.77;12.67;;;;;;;19.88;76.21;99111.45;124782;1099;104195;-75
2022/09/27 09:19:47;;;;;;;21.17;12.30;;;;;;;19.95;76.61;99110.41;124742;1099;104208;-76
2022/09/27 09:22:52;;;;;;;20.47;12.37;;;;;;;19.91;76.22;99111.38;124783;1099;104760;-76
2022/09/27 09:25:34;;;;;;;20.27;12.20;;;;;;;19.96;75.93;99104.17;124716;1099;104345;-76
2022/09/27 09:28:21;;;;;;;21.10;12.17;;;;;;;20.12;76.19;99104.66;124658;1099;112241;-76
2022/09/27 09:31:06;;;;;;;21.73;12.03;;;;;;;20.11;75.57;99114.41;124703;1099;102499;-75
2022/09/27 09:33:41;;;;;;;23.10;11.60;;;;;;;20.10;75.54;99111.78;125553;1099;104198;-76
2022/09/27 09:36:23;;;;;;;18.17;11.30;;;;;;;20.07;75.48;99106.54;124658;1099;105633;-75
2022/09/27 09:39:04;;;;;;;21.07;12.00;;;;;;;20.01;75.86;99094.27;124788;1099;104252;-76
2022/09/27 09:41:40;;;;;;;17.77;11.03;;;;;;;19.95;75.21;99091.77;124744;1099;104239;-76
2022/09/27 09:44:20;;;;;;;21.03;12.27;;;;;;;19.93;75.62;99082.95;124838;1099;104213;-75
2022/09/27 09:46:57;;;;;;;19.87;11.10;;;;;;;19.97;75.63;99089.06;124696;1099;104318;-76
2022/09/27 09:49:38;;;;;;;25.87;11.70;;;;;;;19.99;75.07;99084.56;124332;1099;104130;-76
2022/09/27 09:52:23;;;;;;;19.33;10.90;;;;;;;20.14;74.88;99085.98;124911;1099;104172;-75
2022/09/27 09:55:08;;;;;;;20.67;11.40;;;;;;;20.37;75.75;99086.23;124365;1099;104153;-76
2022/09/27 09:57:56;;;;;;;21.53;11.87;;;;;;;20.43;74.02;99078.08;124748;1099;104175;-76
2022/09/27 10:00:30;;;;;;;18.80;10.50;;;;;;;20.52;75.00;99076.07;125458;1099;102849;-75
2022/09/27 10:03:10;;;;;;;12.97;8.70;;;;;;;20.65;74.89;99074.86;125778;1099;102245;-75
2022/09/27 10:05:45;;;;;;;15.30;8.80;;;;;;;20.77;73.71;99073.61;124445;1099;102664;-76
2022/09/27 10:08:21;;;;;;;16.37;9.20;;;;;;;20.86;73.79;99048.49;124611;1099;104356;-76
2022/09/27 10:11:03;;;;;;;18.70;9.37;;;;;;;20.99;73.97;99049.89;124704;1099;102785;-77
2022/09/27 10:14:03;;;;;;;19.93;10.47;;;;;;;20.97;73.69;99052.59;124636;1099;104284;-76
2022/09/27 10:16:35;;;;;;;15.90;9.00;;;;;;;21.05;73.09;99059.47;124815;1099;102836;-76
2022/09/27 10:19:12;;;;;;;13.93;8.50;;;;;;;21.15;73.68;99059.15;124364;1099;102171;-76
2022/09/27 10:21:44;;;;;;;;;;;;;;;21.13;71.94;99062.77;124807;1099;102243;-75
2022/09/27 10:24:24;;;;;;;13.07;8.50;;;;;;;21.11;72.95;99044.16;124373;1099;104232;-76
2022/09/27 10:27:13;;;;;;;14.90;8.90;;;;;;;21.18;72.88;99053.72;124780;1099;104273;-76
2022/09/27 10:29:46;;;;;;;13.27;8.67;;;;;;;21.34;72.22;99051.44;124782;1099;104091;-76
2022/09/27 10:32:29;;;;;;;15.33;8.20;;;;;;;21.47;71.88;99053.72;124817;1099;104241;-76
2022/09/27 10:35:36;;;;;;;11.90;8.17;;;;;;;21.44;71.70;99045.81;124636;1099;104270;-75
2022/09/27 10:38:27;;;;;;;12.03;7.70;;;;;;;21.41;70.97;99041.47;124691;1098;104332;-76
2022/09/27 10:41:24;;;;;;;8.23;5.90;;;;;;;21.56;71.80;99045.45;124779;1099;104242;-76
2022/09/27 10:44:18;;;;;;;16.20;6.33;;;;;;;21.68;71.57;99044.20;124813;1099;104185;-75
2022/09/27 10:46:59;;;;;;;7.27;5.77;;;;;;;21.84;71.08;99044.55;124866;1099;104169;-75
2022/09/27 10:49:49;;;;;;;9.10;5.93;;;;;;;21.99;69.81;99033.34;125767;1098;110711;-77
2022/09/27 10:52:39;;;;;;;9.00;5.97;;;;;;;22.12;70.28;99032.92;124808;1099;104715;-77
2022/09/27 10:55:22;;;;;;;8.57;5.80;;;;;;;22.09;70.81;99033.89;124389;1099;104310;-78
2022/09/27 10:57:57;;;;;;;;;;;;;;;22.05;70.08;99032.27;125334;1099;102858;-76
2022/09/27 11:00:33;;;;;;;12.00;6.20;;;;;;;22.00;69.97;99040.45;124790;1099;104165;-78
2022/09/27 11:03:18;;;;;;;10.37;6.17;;;;;;;21.97;69.90;99032.53;124710;1099;104328;-77
2022/09/27 11:06:19;;;;;;;10.00;6.30;;;;;;;22.00;69.95;99035.11;124792;1099;102896;-78
2022/09/27 11:08:57;;;;;;;11.23;7.27;;;;;;;22.02;69.17;99032.37;125554;1099;104220;-78
2022/09/27 11:11:35;;;;;;;16.53;7.40;;;;;;;21.99;68.93;99035.16;124955;1099;104169;-77
2022/09/27 11:14:22;;;;;;;14.97;7.73;;;;;;;21.89;69.12;99027.45;125678;1099;104181;-75
2022/09/27 11:17:21;;;;;;;17.53;9.00;;;;;;;21.80;68.65;99041.12;124735;1099;104247;-76
2022/09/27 11:20:17;;;;;;;17.43;8.67;;;;;;;21.71;68.23;99041.42;124922;1099;104291;-76
2022/09/27 11:23:16;;;;;;;17.97;8.37;;;;;;;21.69;68.86;99032.57;124799;1099;102761;-76
2022/09/27 11:26:05;;;;;;;15.30;8.27;;;;;;;21.63;68.30;99024.77;124787;1099;102207;-76
2022/09/27 11:28:49;;;;;;;17.93;7.93;;;;;;;21.57;68.36;99020.52;124825;1098;104191;-75
2022/09/27 11:31:44;;;;;;;15.77;8.57;;;;;;;21.51;68.23;99020.72;124762;1099;104205;-75
2022/09/27 11:34:36;;;;;;;14.33;8.33;;;;;;;21.43;67.38;99023.61;126108;1098;104149;-75
2022/09/27 11:37:22;;;;;;;15.17;8.13;;;;;;;21.40;67.54;99013.03;124391;1099;105079;-75
2022/09/27 11:40:15;;;;;;;13.93;7.70;;;;;;;21.33;68.00;99011.47;124742;1099;104249;-76
2022/09/27 11:43:15;;;;;;;16.33;8.63;;;;;;;21.30;67.43;99011.57;124757;1099;102531;-75
2022/09/27 11:46:01;;;;;;;14.27;8.00;;;;;;;21.31;67.78;99008.86;124709;1099;103296;-75
2022/09/27 11:49:00;;;;;;;15.23;7.67;;;;;;;21.36;67.66;99006.03;124718;1099;104178;-76
2022/09/27 11:51:55;;;;;;;17.83;8.03;;;;;;;21.37;67.08;99002.46;124669;1099;119810;-75
2022/09/27 11:54:44;;;;;;;18.03;8.53;;;;;;;21.34;67.56;99003.42;124637;1099;104169;-76
2022/09/27 11:57:39;;;;;;;16.30;8.53;;;;;;;21.36;67.83;99003.37;124800;1099;104325;-76
2022/09/27 12:00:43;;;;;;;12.63;8.10;;;;;;;21.38;67.80;99004.22;124573;1099;104322;-75
2022/09/27 12:03:59;;;;;;;15.47;8.20;;;;;;;21.40;66.82;99001.50;124757;1099;104182;-76
2022/09/27 12:06:43;;;;;;;17.23;8.63;;;;;;;21.41;66.85;99009.45;125250;1098;104192;-75
2022/09/27 12:09:19;;;;;;;14.50;8.33;;;;;;;21.39;66.51;99010.41;124742;1099;104137;-76
2022/09/27 12:11:56;;;;;;;14.30;8.13;;;;;;;21.37;66.58;99015.80;124730;1099;104284;-75
2022/09/27 12:14:39;;;;;;;15.83;8.10;;;;;;;21.40;66.64;99010.36;124654;1099;104207;-74
2022/09/27 12:17:13;;;;;;;;;;;;;;;21.44;67.37;99005.79;124802;1099;104230;-76
2022/09/27 12:19:50;;;;;;;13.90;7.65;;;;;;;21.46;66.85;98996.83;124751;1099;104294;-76
2022/09/27 12:22:33;;;;;;;14.80;8.07;;;;;;;21.47;66.29;98995.91;124692;1099;104260;-76